Time;durP1;ratioP1;P1;durP2;ratioP2;P2;SDS_P1;SDS_P2;PMS_P1;PMS_P2;Temp;Humidity;BMP_temperature;BMP_pressure;BME280_temperature;BME280_humidity;BME280_pressure;Samples;Min_cycle;Max_cycle;Signal;HPM_P1;HPM_P2
2022/08/31 00:03:52;;;;;;;;;;;16.20;99.90;;;;;;5071162;28;20055;-57
2022/08/31 00:06:18;;;;;;;1.52;0.40;;;16.10;99.90;;;;;;5070599;28;20418;-59
2022/08/31 00:08:44;;;;;;;1.10;0.47;;;16.10;99.90;;;;;;5070526;28;20040;-57
2022/08/31 00:11:12;;;;;;;0.60;0.40;;;16.10;99.90;;;;;;5070350;28;20056;-56
2022/08/31 00:13:40;;;;;;;0.80;0.38;;;16.10;99.90;;;;;;5070947;28;20045;-58
2022/08/31 00:16:08;;;;;;;0.47;0.30;;;16.10;99.90;;;;;;5036069;28;20049;-58
2022/08/31 00:18:33;;;;;;;1.05;0.30;;;16.10;99.90;;;;;;5066459;28;20037;-56
2022/08/31 00:20:59;;;;;;;1.50;0.60;;;16.10;99.90;;;;;;5070420;28;20513;-57
2022/08/31 00:23:25;;;;;;;0.60;0.35;;;16.10;99.90;;;;;;5069941;28;20482;-57
2022/08/31 00:25:51;;;;;;;1.45;0.50;;;16.00;99.90;;;;;;5070387;28;20131;-60
2022/08/31 00:28:17;;;;;;;0.60;0.45;;;16.00;99.90;;;;;;5070167;28;20838;-57
2022/08/31 00:30:44;;;;;;;0.40;0.30;;;16.00;99.90;;;;;;5070342;28;20048;-56
2022/08/31 00:33:10;;;;;;;2.05;0.50;;;15.90;99.90;;;;;;5070836;28;20145;-56
2022/08/31 00:35:40;;;;;;;0.47;0.40;;;15.80;99.90;;;;;;5070252;28;20048;-56
2022/08/31 00:38:07;;;;;;;0.55;0.40;;;15.80;99.90;;;;;;5050599;28;20126;-60
2022/08/31 00:40:33;;;;;;;1.15;0.35;;;15.70;99.90;;;;;;5049332;28;20385;-60
2022/08/31 00:42:59;;;;;;;0.20;0.20;;;15.70;99.90;;;;;;5049910;28;20056;-61
2022/08/31 00:45:26;;;;;;;1.75;0.45;;;15.60;99.90;;;;;;5056937;28;20044;-59
2022/08/31 00:47:52;;;;;;;0.25;0.20;;;15.60;99.90;;;;;;5069523;28;20040;-60
2022/08/31 00:50:19;;;;;;;1.75;0.30;;;15.60;99.90;;;;;;5070195;28;20394;-57
2022/08/31 00:52:52;;;;;;;1.60;0.30;;;15.50;99.90;;;;;;5069965;28;20048;-56
2022/08/31 00:55:35;;;;;;;0.82;0.30;;;15.50;99.90;;;;;;5070186;28;20393;-59
2022/08/31 00:58:06;;;;;;;0.73;0.25;;;15.50;99.90;;;;;;5069355;28;20059;-58
2022/08/31 01:00:33;;;;;;;0.20;0.20;;;15.50;99.90;;;;;;5069533;28;20205;-58
2022/08/31 01:03:00;;;;;;;0.40;0.35;;;15.50;99.90;;;;;;5069756;28;20056;-58
2022/08/31 01:05:28;;;;;;;0.10;0.10;;;15.50;99.90;;;;;;5069975;28;20055;-55
2022/08/31 01:07:54;;;;;;;0.30;0.30;;;15.40;99.90;;;;;;5068983;28;20496;-56
2022/08/31 01:10:23;;;;;;;2.30;0.20;;;15.40;99.90;;;;;;5069628;28;20049;-58
2022/08/31 01:12:52;;;;;;;0.45;0.30;;;15.40;99.90;;;;;;5069385;28;20553;-59
2022/08/31 01:15:18;;;;;;;1.95;0.22;;;15.30;99.90;;;;;;5068968;28;20123;-56
2022/08/31 01:17:47;;;;;;;1.30;0.13;;;15.30;99.90;;;;;;5064247;28;20041;-59
2022/08/31 01:20:24;;;;;;;0.25;0.25;;;15.20;99.90;;;;;;5049083;28;20485;-60
2022/08/31 01:23:08;;;;;;;0.10;0.10;;;15.20;99.90;;;;;;5049225;28;20194;-59
2022/08/31 01:25:36;;;;;;;0.10;0.10;;;15.10;99.90;;;;;;5048977;28;20469;-58
2022/08/31 01:28:05;;;;;;;0.82;0.20;;;15.10;99.90;;;;;;5048630;28;20087;-60
2022/08/31 01:30:32;;;;;;;0.82;0.25;;;15.00;99.90;;;;;;5063076;28;20124;-60
2022/08/31 01:32:58;;;;;;;0.57;0.40;;;14.90;99.90;;;;;;5068914;28;20052;-58
2022/08/31 01:35:25;;;;;;;1.20;0.30;;;14.90;99.90;;;;;;5068964;28;20084;-59
2022/08/31 01:37:51;;;;;;;0.40;0.30;;;14.80;99.90;;;;;;5056358;28;20044;-60
2022/08/31 01:40:17;;;;;;;0.95;0.38;;;14.80;99.90;;;;;;5068459;28;20135;-60
2022/08/31 01:42:43;;;;;;;0.30;0.30;;;14.80;99.90;;;;;;5068916;28;20123;-60
2022/08/31 01:45:10;;;;;;;0.65;0.40;;;14.80;99.90;;;;;;5034225;28;20080;-60
2022/08/31 01:47:38;;;;;;;0.52;0.40;;;14.70;99.90;;;;;;5068713;28;20341;-60
2022/08/31 01:50:04;;;;;;;0.68;0.30;;;14.60;99.90;;;;;;5069090;28;20052;-59
2022/08/31 01:52:30;;;;;;;0.50;0.30;;;14.60;99.90;;;;;;5068154;28;20040;-58
2022/08/31 01:54:55;;;;;;;0.30;0.30;;;14.50;99.90;;;;;;5068364;28;20044;-56
2022/08/31 01:57:21;;;;;;;1.15;0.60;;;14.50;99.90;;;;;;5068633;28;20125;-56
2022/08/31 01:59:47;;;;;;;0.73;0.30;;;14.50;99.90;;;;;;5068672;28;20084;-56
2022/08/31 02:02:13;;;;;;;0.80;0.20;;;14.30;99.90;;;;;;5068526;28;20048;-56
2022/08/31 02:04:38;;;;;;;1.65;0.60;;;14.30;99.90;;;;;;5068680;28;20079;-56
2022/08/31 02:07:04;;;;;;;1.77;0.50;;;14.30;99.90;;;;;;5068553;28;20084;-56
2022/08/31 02:09:30;;;;;;;1.05;0.30;;;14.30;99.90;;;;;;5050350;28;20121;-56
2022/08/31 02:11:55;;;;;;;1.25;0.40;;;14.20;99.90;;;;;;5068051;28;20040;-57
2022/08/31 02:14:21;;;;;;;0.98;0.45;;;14.10;99.90;;;;;;5068537;28;20048;-57
2022/08/31 02:16:48;;;;;;;1.67;0.60;;;14.10;99.90;;;;;;5068334;28;20059;-57
2022/08/31 02:19:14;;;;;;;3.83;1.00;;;14.00;99.90;;;;;;5068166;28;20037;-60
2022/08/31 02:21:40;;;;;;;2.85;1.10;;;14.00;99.90;;;;;;5067637;28;20529;-59
2022/08/31 02:24:07;;;;;;;0.85;0.50;;;13.90;99.90;;;;;;5067648;28;20129;-59
2022/08/31 02:26:33;;;;;;;1.75;0.88;;;13.80;99.90;;;;;;5067537;28;20496;-58
2022/08/31 02:28:59;;;;;;;1.88;1.05;;;13.80;99.90;;;;;;5067452;28;20055;-60
2022/08/31 02:31:25;;;;;;;4.28;1.08;;;13.70;99.90;;;;;;5068397;28;20048;-59
2022/08/31 02:33:50;;;;;;;2.35;0.93;;;13.70;99.90;;;;;;5067651;28;20516;-59
2022/08/31 02:36:16;;;;;;;2.30;0.90;;;13.60;99.90;;;;;;5063276;28;20041;-59
2022/08/31 02:38:42;;;;;;;1.45;0.70;;;13.60;99.90;;;;;;5047684;28;20127;-58
2022/08/31 02:41:07;;;;;;;2.17;0.82;;;13.50;99.90;;;;;;5048131;28;20199;-59
2022/08/31 02:43:34;;;;;;;0.70;0.68;;;13.50;99.90;;;;;;5048035;28;20390;-59
2022/08/31 02:45:59;;;;;;;3.63;1.38;;;13.50;99.90;;;;;;5048129;28;20368;-57
2022/08/31 02:48:25;;;;;;;3.65;1.10;;;13.40;99.90;;;;;;5065293;28;20056;-55
2022/08/31 02:50:52;;;;;;;1.75;1.17;;;13.40;99.90;;;;;;5068141;28;20044;-56
2022/08/31 02:53:20;;;;;;;1.60;1.00;;;13.30;99.90;;;;;;5067574;28;20406;-55
2022/08/31 02:55:46;;;;;;;4.97;1.50;;;13.20;99.90;;;;;;5067714;28;20056;-58
2022/08/31 02:58:13;;;;;;;3.22;1.67;;;13.20;99.90;;;;;;5067800;28;20496;-55
2022/08/31 03:00:44;;;;;;;3.85;1.23;;;13.10;99.90;;;;;;5067435;28;20048;-56
2022/08/31 03:03:10;;;;;;;0.77;0.52;;;13.10;99.90;;;;;;5067771;28;20452;-56
2022/08/31 03:05:35;;;;;;;1.02;0.55;;;13.10;99.90;;;;;;5070708;28;20048;-56
2022/08/31 03:08:01;;;;;;;0.77;0.70;;;13.10;99.90;;;;;;5072021;28;20048;-57
2022/08/31 03:10:27;;;;;;;0.40;0.38;;;13.10;99.90;;;;;;5071726;28;20119;-59
2022/08/31 03:12:53;;;;;;;1.08;0.47;;;13.00;99.90;;;;;;5071662;28;20045;-61
2022/08/31 03:15:21;;;;;;;1.52;1.30;;;13.00;99.90;;;;;;5071665;28;20125;-55
2022/08/31 03:17:48;;;;;;;1.90;0.50;;;12.90;99.90;;;;;;5066054;28;20037;-56
2022/08/31 03:20:15;;;;;;;0.38;0.35;;;13.00;99.90;;;;;;5051243;28;20502;-56
2022/08/31 03:22:41;;;;;;;1.33;0.65;;;12.90;99.90;;;;;;5050985;28;20053;-57
2022/08/31 03:25:08;;;;;;;1.33;0.30;;;13.00;99.90;;;;;;5051304;28;20045;-56
2022/08/31 03:27:36;;;;;;;0.57;0.30;;;12.90;99.90;;;;;;5050626;28;20053;-57
2022/08/31 03:30:05;;;;;;;0.73;0.30;;;12.80;99.90;;;;;;5050722;28;20059;-59
2022/08/31 03:32:31;;;;;;;0.52;0.40;;;12.90;99.90;;;;;;5066464;28;20052;-57
2022/08/31 03:34:58;;;;;;;0.43;0.30;;;12.90;99.90;;;;;;5071155;28;20393;-58
2022/08/31 03:37:25;;;;;;;0.88;0.40;;;12.80;99.90;;;;;;5057752;28;20115;-58
2022/08/31 03:39:50;;;;;;;0.55;0.38;;;12.80;99.90;;;;;;5033136;28;20521;-59
2022/08/31 03:42:16;;;;;;;1.58;0.40;;;12.80;99.90;;;;;;5051219;28;20041;-60
2022/08/31 03:44:42;;;;;;;1.20;0.60;;;12.80;99.90;;;;;;5051234;28;20125;-57
2022/08/31 03:47:08;;;;;;;0.68;0.52;;;12.80;99.90;;;;;;5060342;28;20486;-59
2022/08/31 03:49:33;;;;;;;1.75;0.63;;;12.70;99.90;;;;;;5071335;28;20036;-59
2022/08/31 03:52:01;;;;;;;0.30;0.30;;;12.70;99.90;;;;;;5071042;28;20477;-59
2022/08/31 03:54:26;;;;;;;1.45;0.60;;;12.70;99.90;;;;;;5070712;28;20401;-55
2022/08/31 03:56:52;;;;;;;2.53;0.70;;;12.70;99.90;;;;;;5070674;28;20055;-58
2022/08/31 03:59:18;;;;;;;1.13;0.50;;;12.80;99.90;;;;;;5070500;28;20149;-57
2022/08/31 04:01:43;;;;;;;1.35;1.20;;;12.70;99.90;;;;;;5052787;28;20090;-56
2022/08/31 04:04:11;;;;;;;0.40;0.30;;;12.70;99.90;;;;;;5069023;28;20079;-59
2022/08/31 04:06:39;;;;;;;1.10;0.40;;;12.60;99.90;;;;;;5070185;28;20544;-60
2022/08/31 04:09:05;;;;;;;0.50;0.45;;;12.70;99.90;;;;;;5050916;28;20055;-60
2022/08/31 04:11:30;;;;;;;0.75;0.50;;;12.60;99.90;;;;;;5050610;28;20501;-58
2022/08/31 04:13:56;;;;;;;1.77;0.60;;;12.70;99.90;;;;;;5050524;28;20072;-59
2022/08/31 04:16:23;;;;;;;1.33;0.43;;;12.50;99.90;;;;;;5053482;28;20044;-56
2022/08/31 04:18:49;;;;;;;1.85;0.35;;;12.60;99.90;;;;;;5056488;28;20037;-56
2022/08/31 04:21:21;;;;;;;0.60;0.45;;;12.60;99.90;;;;;;5050276;28;20486;-56
2022/08/31 04:23:49;;;;;;;0.60;0.52;;;12.60;99.90;;;;;;5049988;28;20065;-55
2022/08/31 04:26:16;;;;;;;1.15;0.60;;;12.50;99.90;;;;;;5050130;28;20406;-58
2022/08/31 04:28:42;;;;;;;0.40;0.30;;;12.50;99.90;;;;;;5050547;28;20044;-58
2022/08/31 04:31:07;;;;;;;0.60;0.60;;;12.50;99.90;;;;;;5053585;28;20045;-58
2022/08/31 04:33:36;;;;;;;0.60;0.40;;;12.50;99.90;;;;;;5070350;28;20174;-55
2022/08/31 04:36:05;;;;;;;0.85;0.45;;;12.50;99.90;;;;;;5067563;28;20486;-56
2022/08/31 04:38:32;;;;;;;0.80;0.50;;;12.60;99.90;;;;;;5049983;28;20128;-60
2022/08/31 04:41:01;;;;;;;2.03;0.40;;;12.50;99.90;;;;;;5015580;28;20410;-56
2022/08/31 04:43:27;;;;;;;0.85;0.47;;;12.50;99.90;;;;;;5050114;28;20072;-58
2022/08/31 04:45:53;;;;;;;0.30;0.30;;;12.50;99.90;;;;;;5033763;28;20048;-56
2022/08/31 04:48:19;;;;;;;0.73;0.50;;;12.50;99.90;;;;;;5069508;28;20540;-56
2022/08/31 04:50:44;;;;;;;1.67;0.40;;;12.40;99.90;;;;;;5067345;28;20159;-55
2022/08/31 04:53:10;;;;;;;1.90;0.40;;;12.40;99.90;;;;;;5069902;28;20098;-56
2022/08/31 04:55:40;;;;;;;0.30;0.30;;;12.40;99.90;;;;;;5069632;28;20048;-56
2022/08/31 04:58:06;;;;;;;0.65;0.50;;;12.40;99.90;;;;;;5051994;28;20044;-56
2022/08/31 05:00:32;;;;;;;1.17;0.50;;;12.40;99.90;;;;;;5059669;28;20102;-55
2022/08/31 05:02:58;;;;;;;0.63;0.40;;;12.40;99.90;;;;;;5049018;28;20051;-56
2022/08/31 05:05:24;;;;;;;2.42;0.60;;;12.40;99.90;;;;;;5048502;28;20442;-57
2022/08/31 05:07:50;;;;;;;2.13;0.43;;;12.40;99.90;;;;;;5042743;28;20044;-56
2022/08/31 05:10:15;;;;;;;5.45;1.10;;;12.40;99.90;;;;;;5068593;28;20048;-56
2022/08/31 05:12:43;;;;;;;1.23;0.75;;;12.50;99.90;;;;;;5069591;28;20505;-56
2022/08/31 05:15:09;;;;;;;0.50;0.40;;;12.50;99.90;;;;;;5069000;28;20115;-56
2022/08/31 05:17:35;;;;;;;1.38;0.55;;;12.40;99.90;;;;;;5050846;28;20128;-55
2022/08/31 05:20:01;;;;;;;0.82;0.40;;;12.50;99.90;;;;;;5068865;28;20127;-56
2022/08/31 05:22:28;;;;;;;1.60;0.50;;;12.50;99.90;;;;;;5069108;28;20076;-56
2022/08/31 05:24:54;;;;;;;0.90;0.47;;;12.60;99.90;;;;;;5069028;28;20511;-56
2022/08/31 05:27:20;;;;;;;0.90;0.55;;;12.60;99.90;;;;;;5060205;28;20054;-55
2022/08/31 05:29:45;;;;;;;0.90;0.50;;;12.60;99.90;;;;;;5068445;28;20493;-57
2022/08/31 05:32:11;;;;;;;0.90;0.60;;;12.70;99.90;;;;;;5068767;28;20041;-56
2022/08/31 05:34:36;;;;;;;1.25;0.93;;;12.80;99.90;;;;;;5068004;28;20044;-55
2022/08/31 05:37:02;;;;;;;1.80;0.70;;;12.90;99.90;;;;;;5057195;28;20444;-58
2022/08/31 05:39:29;;;;;;;0.75;0.68;;;13.00;99.90;;;;;;5047566;28;20041;-57
2022/08/31 05:41:55;;;;;;;0.70;0.60;;;13.00;99.90;;;;;;5048129;28;20036;-56
2022/08/31 05:44:21;;;;;;;3.35;0.73;;;13.20;99.90;;;;;;5048032;28;20122;-58
2022/08/31 05:46:47;;;;;;;3.00;0.57;;;13.30;99.90;;;;;;5063912;28;20048;-60
2022/08/31 05:49:13;;;;;;;3.00;0.65;;;13.40;99.90;;;;;;5067808;28;20076;-59
2022/08/31 05:51:38;;;;;;;0.75;0.60;;;13.50;99.90;;;;;;5068663;28;20083;-59
2022/08/31 05:54:05;;;;;;;0.50;0.50;;;13.60;99.90;;;;;;5068369;28;20094;-58
2022/08/31 05:56:30;;;;;;;1.10;0.60;;;13.70;99.90;;;;;;5067556;28;20520;-59
2022/08/31 05:58:56;;;;;;;1.67;1.02;;;13.80;99.90;;;;;;5067503;28;20076;-58
2022/08/31 06:01:25;;;;;;;0.77;0.55;;;13.90;99.90;;;;;;5066109;28;20048;-57
2022/08/31 06:03:53;;;;;;;0.52;0.45;;;14.00;99.90;;;;;;5067285;28;20124;-55
2022/08/31 06:06:19;;;;;;;3.35;1.02;;;14.20;99.90;;;;;;5049876;28;20398;-56
2022/08/31 06:08:45;;;;;;;1.00;0.57;;;14.40;99.90;;;;;;5067804;28;20083;-55
2022/08/31 06:11:18;;;;;;;2.47;0.82;;;14.50;99.90;;;;;;5067410;28;20142;-56
2022/08/31 06:13:45;;;;;;;3.28;1.02;;;14.70;99.90;;;;;;5067992;28;20105;-55
2022/08/31 06:16:10;;;;;;;1.95;0.70;;;14.80;99.90;;;;;;5067281;28;20561;-55
2022/08/31 06:18:49;;;;;;;2.67;0.65;;;15.00;99.90;;;;;;5049685;28;20178;-56
2022/08/31 06:21:17;;;;;;;2.90;1.15;;;15.20;99.90;;;;;;5067507;28;20087;-55
2022/08/31 06:23:43;;;;;;;3.30;0.73;;;15.40;99.90;;;;;;5067370;28;20048;-55
2022/08/31 06:26:15;;;;;;;0.98;0.73;;;15.70;99.90;;;;;;5049837;28;20510;-56
2022/08/31 06:28:42;;;;;;;1.42;0.82;;;15.80;99.90;;;;;;5067760;28;20058;-56
2022/08/31 06:31:17;;;;;;;0.60;0.40;;;16.00;99.90;;;;;;5067204;28;20063;-55
2022/08/31 06:33:43;;;;;;;2.83;1.45;;;16.30;99.90;;;;;;5067763;28;20394;-55
2022/08/31 06:36:16;;;;;;;1.48;0.45;;;16.50;99.90;;;;;;5064201;28;20616;-56
2022/08/31 06:38:42;;;;;;;2.70;0.60;;;16.80;99.90;;;;;;5046852;28;20055;-56
2022/08/31 06:41:16;;;;;;;1.70;0.85;;;17.00;99.90;;;;;;5047545;28;20053;-56
2022/08/31 06:43:43;;;;;;;1.50;0.55;;;17.20;99.90;;;;;;5047655;28;20052;-56
2022/08/31 06:46:09;;;;;;;3.05;0.40;;;17.30;99.90;;;;;;5062762;28;20464;-56
2022/08/31 06:48:35;;;;;;;2.08;0.63;;;17.50;99.90;;;;;;5067193;28;20044;-55
2022/08/31 06:51:02;;;;;;;1.73;0.30;;;17.70;99.90;;;;;;5067090;28;20040;-56
2022/08/31 06:53:28;;;;;;;1.00;0.40;;;17.60;99.90;;;;;;5067770;28;20075;-55
2022/08/31 06:55:55;;;;;;;0.50;0.40;;;17.90;99.90;;;;;;5067364;28;20048;-56
2022/08/31 06:58:21;;;;;;;0.80;0.32;;;18.10;99.90;;;;;;5067144;28;20517;-56
2022/08/31 07:00:48;;;;;;;0.77;0.20;;;18.10;99.90;;;;;;5067709;28;20048;-59
2022/08/31 07:03:22;;;;;;;1.58;0.22;;;18.20;99.90;;;;;;5066564;28;20451;-56
2022/08/31 07:05:51;;;;;;;0.63;0.57;;;18.40;99.90;;;;;;5067493;28;20047;-56
2022/08/31 07:08:18;;;;;;;0.75;0.40;;;18.50;99.90;;;;;;5066989;28;20056;-56
2022/08/31 07:10:45;;;;;;;1.30;0.50;;;18.60;99.90;;;;;;5068078;28;20135;-56
2022/08/31 07:13:11;;;;;;;0.55;0.47;;;18.80;99.90;;;;;;5067701;28;20098;-56
2022/08/31 07:15:36;;;;;;;2.00;0.50;;;18.90;99.90;;;;;;5067279;28;20052;-55
2022/08/31 07:18:02;;;;;;;1.80;0.43;;;19.20;99.90;;;;;;5067724;28;20045;-58
2022/08/31 07:20:28;;;;;;;0.98;0.38;;;19.10;99.90;;;;;;5068164;28;20045;-56
2022/08/31 07:22:53;;;;;;;0.73;0.50;;;19.30;99.90;;;;;;5049385;28;20597;-57
2022/08/31 07:25:19;;;;;;;1.85;0.40;;;19.10;99.90;;;;;;5067603;28;20053;-58
2022/08/31 07:27:45;;;;;;;2.85;0.50;;;19.10;99.90;;;;;;5067753;28;20040;-58
2022/08/31 07:30:11;;;;;;;1.30;0.57;;;19.10;99.90;;;;;;5032899;28;20056;-59
2022/08/31 07:32:37;;;;;;;0.90;0.45;;;19.40;99.90;;;;;;5067416;28;20100;-56
2022/08/31 07:35:04;;;;;;;1.42;0.60;;;19.60;99.90;;;;;;5067339;28;20438;-58
2022/08/31 07:43:03;;;;;;;0.35;0.28;;;20.10;99.90;;;;;;5047571;28;20406;-56
2022/08/31 07:45:29;;;;;;;1.00;0.40;;;20.30;99.90;;;;;;5034082;28;20470;-56
2022/08/31 07:47:58;;;;;;;0.77;0.30;;;20.20;99.90;;;;;;5067111;28;20056;-57
2022/08/31 07:50:30;;;;;;;1.50;0.30;;;20.20;99.90;;;;;;5068208;28;20793;-57
2022/08/31 07:52:57;;;;;;;2.85;0.52;;;20.30;99.90;;;;;;5070816;28;20063;-57
2022/08/31 07:55:26;;;;;;;0.40;0.40;;;20.30;99.90;;;;;;5070939;28;20159;-58
2022/08/31 07:57:53;;;;;;;0.82;0.50;;;20.30;99.90;;;;;;5070982;28;20083;-57
2022/08/31 08:00:26;;;;;;;1.08;0.75;;;20.70;99.90;;;;;;5070758;28;20486;-56
2022/08/31 08:02:52;;;;;;;0.57;0.32;;;20.70;99.90;;;;;;5071036;28;20091;-56
2022/08/31 08:05:26;;;;;;;0.40;0.38;;;21.00;99.90;;;;;;5071097;28;20087;-56
2022/08/31 08:07:54;;;;;;;2.10;0.63;;;21.30;99.90;;;;;;5064347;28;20463;-58
2022/08/31 08:10:22;;;;;;;2.55;0.30;;;21.60;99.90;;;;;;5060194;28;20035;-57
2022/08/31 08:12:55;;;;;;;0.88;0.50;;;21.60;99.90;;;;;;5063068;28;20104;-58
2022/08/31 08:15:23;;;;;;;1.37;0.60;;;22.00;99.90;;;;;;5059816;28;20054;-56
2022/08/31 08:17:48;;;;;;;0.40;0.20;;;22.70;99.90;;;;;;5042388;28;20101;-56
2022/08/31 08:20:15;;;;;;;2.38;0.50;;;22.70;99.90;;;;;;5060862;28;20490;-58
2022/08/31 08:22:42;;;;;;;0.40;0.40;;;22.70;99.90;;;;;;5058984;28;20045;-58
2022/08/31 08:25:09;;;;;;;2.40;0.55;;;23.20;99.90;;;;;;5060724;28;20052;-57
2022/08/31 08:27:35;;;;;;;4.15;1.20;;;22.90;99.20;;;;;;5060544;28;20128;-57
2022/08/31 08:30:01;;;;;;;2.72;0.70;;;23.30;99.10;;;;;;5060933;28;20047;-57
2022/08/31 08:32:30;;;;;;;1.17;0.45;;;23.30;99.00;;;;;;5057731;28;20486;-57
2022/08/31 08:34:56;;;;;;;0.60;0.40;;;23.40;98.60;;;;;;5062043;28;20119;-58
2022/08/31 08:37:22;;;;;;;2.83;0.50;;;23.40;98.30;;;;;;5060736;28;20040;-58
2022/08/31 08:39:48;;;;;;;2.92;0.40;;;23.80;98.50;;;;;;5055736;28;20495;-57
2022/08/31 08:42:14;;;;;;;1.08;0.30;;;23.90;97.70;;;;;;5050397;28;20056;-56
2022/08/31 08:44:42;;;;;;;3.50;0.50;;;23.80;98.20;;;;;;5055922;28;20050;-56
2022/08/31 08:47:23;;;;;;;0.63;0.40;;;23.80;97.00;;;;;;5069885;28;20460;-56
2022/08/31 08:49:54;;;;;;;0.75;0.52;;;24.00;97.10;;;;;;5070089;28;20401;-56
2022/08/31 08:52:36;;;;;;;1.50;0.65;;;24.20;97.60;;;;;;5063587;28;20037;-56
2022/08/31 08:55:12;;;;;;;0.73;0.40;;;24.50;96.60;;;;;;5039661;28;20048;-56
2022/08/31 08:57:42;;;;;;;0.57;0.40;;;24.50;96.80;;;;;;5056563;28;20495;-56
2022/08/31 09:00:23;;;;;;;1.08;0.70;;;24.70;97.30;;;;;;5058338;28;20049;-58
2022/08/31 09:02:49;;;;;;;1.02;0.30;;;24.80;96.00;;;;;;5060509;28;20049;-56
2022/08/31 09:05:23;;;;;;;0.30;0.30;;;24.60;96.50;;;;;;5069223;28;20126;-56
2022/08/31 09:08:16;;;;;;;0.50;0.30;;;25.00;96.90;;;;;;5069326;28;20044;-57
2022/08/31 09:10:57;;;;;;;3.85;0.40;;;25.20;95.80;;;;;;5069970;28;20399;-59
2022/08/31 09:13:37;;;;;;;0.40;0.40;;;25.00;95.60;;;;;;5069701;28;20044;-59
2022/08/31 09:16:37;;;;;;;4.10;1.08;;;25.20;95.40;;;;;;5069808;28;20479;-58
2022/08/31 09:19:15;;;;;;;2.30;0.20;;;25.40;94.90;;;;;;5052798;28;20053;-56
2022/08/31 09:21:54;;;;;;;1.20;0.40;;;25.20;95.00;;;;;;5048670;28;20079;-56
2022/08/31 09:24:26;;;;;;;4.72;0.68;;;25.20;95.20;;;;;;5048392;28;20067;-56
2022/08/31 09:27:21;;;;;;;1.70;0.60;;;25.40;95.80;;;;;;5048993;28;20059;-59
2022/08/31 09:30:00;;;;;;;1.42;0.57;;;25.40;95.60;;;;;;5047234;28;20494;-57
2022/08/31 09:32:33;;;;;;;4.93;0.70;;;25.30;94.90;;;;;;5053704;28;20048;-59
2022/08/31 09:35:05;;;;;;;0.85;0.57;;;25.30;95.70;;;;;;5068997;28;20067;-60
2022/08/31 09:37:44;;;;;;;3.67;0.30;;;25.10;95.10;;;;;;5056442;28;20131;-59
2022/08/31 09:40:26;;;;;;;1.27;0.55;;;25.20;95.10;;;;;;5057286;28;20052;-60
2022/08/31 09:43:21;;;;;;;3.03;0.40;;;25.20;94.50;;;;;;5033890;28;20051;-59
2022/08/31 09:45:55;;;;;;;0.82;0.50;;;24.80;94.40;;;;;;5059836;28;20112;-58
2022/08/31 09:48:47;;;;;;;5.18;0.50;;;24.40;95.00;;;;;;5059232;28;20037;-59
2022/08/31 09:51:24;;;;;;;1.10;0.43;;;24.30;94.10;;;;;;5063370;28;20055;-59
2022/08/31 09:56:54;;;;;;;0.98;0.35;;;24.00;95.90;;;;;;5054864;28;20118;-56
2022/08/31 09:59:38;;;;;;;1.25;0.50;;;23.70;95.20;;;;;;5046587;28;20456;-56
2022/08/31 10:02:25;;;;;;;0.93;0.50;;;23.40;95.00;;;;;;5050320;28;20073;-56
2022/08/31 10:04:57;;;;;;;0.93;0.45;;;23.50;95.70;;;;;;5049181;28;20060;-56
2022/08/31 10:07:32;;;;;;;3.22;0.80;;;24.00;95.40;;;;;;5067519;28;20052;-56
2022/08/31 10:10:02;;;;;;;2.20;0.88;;;24.00;94.80;;;;;;5067657;28;20048;-56
2022/08/31 10:12:42;;;;;;;3.92;0.32;;;23.80;95.10;;;;;;5067961;28;20150;-57
2022/08/31 10:15:24;;;;;;;1.40;0.85;;;23.90;95.00;;;;;;5067470;28;20060;-56
2022/08/31 10:18:12;;;;;;;1.25;0.60;;;24.40;95.20;;;;;;5066268;28;20066;-56
2022/08/31 10:21:06;;;;;;;2.45;0.40;;;25.00;95.00;;;;;;5067971;28;20048;-57
2022/08/31 10:23:55;;;;;;;2.30;0.52;;;25.40;93.50;;;;;;5067865;28;20060;-56
2022/08/31 10:26:35;;;;;;;1.23;0.52;;;25.50;94.10;;;;;;5067918;28;20053;-56
2022/08/31 10:29:13;;;;;;;0.30;0.30;;;25.70;93.90;;;;;;5067620;28;20434;-57
2022/08/31 10:31:45;;;;;;;4.18;0.63;;;26.10;93.20;;;;;;5068062;28;20654;-57
2022/08/31 10:37:18;;;;;;;0.50;0.47;;;26.70;92.60;;;;;;5059294;28;20090;-56
2022/08/31 10:39:50;;;;;;;1.10;0.25;;;27.10;92.60;;;;;;5067762;28;20139;-57
2022/08/31 10:42:36;;;;;;;0.73;0.30;;;26.60;93.00;;;;;;5067416;28;20040;-57
2022/08/31 10:45:09;;;;;;;1.65;0.30;;;26.30;91.30;;;;;;5049567;28;20563;-57
2022/08/31 10:47:41;;;;;;;0.35;0.30;;;25.90;91.70;;;;;;5068026;28;20052;-57
2022/08/31 10:50:11;;;;;;;2.28;0.50;;;26.00;92.30;;;;;;5067654;28;20413;-57
2022/08/31 10:53:12;;;;;;;0.43;0.35;;;26.10;92.00;;;;;;5067616;28;20040;-57
2022/08/31 10:56:13;;;;;;;0.38;0.35;;;26.10;91.50;;;;;;5042436;28;20060;-59
2022/08/31 10:58:57;;;;;;;0.60;0.40;;;26.30;92.00;;;;;;5047508;28;20053;-59
2022/08/31 11:01:53;;;;;;;0.30;0.30;;;26.10;91.40;;;;;;5049726;28;20088;-59
2022/08/31 11:04:47;;;;;;;0.52;0.28;;;25.90;91.30;;;;;;5065119;28;20063;-57
2022/08/31 11:07:32;;;;;;;0.35;0.30;;;26.20;91.90;;;;;;5043590;28;20103;-59
2022/08/31 11:10:18;;;;;;;3.58;0.60;;;25.90;91.40;;;;;;5049456;28;20049;-58
2022/08/31 11:12:51;;;;;;;1.83;0.25;;;25.90;91.00;;;;;;5067665;28;20059;-58
2022/08/31 11:15:56;;;;;;;0.15;0.13;;;25.90;90.80;;;;;;5067823;28;20044;-60
2022/08/31 11:18:38;;;;;;;0.82;0.38;;;26.00;90.00;;;;;;5056913;28;20056;-57
2022/08/31 11:21:35;;;;;;;1.05;0.30;;;26.20;90.90;;;;;;5047761;28;20056;-60
2022/08/31 11:24:11;;;;;;;0.32;0.30;;;26.40;90.70;;;;;;5047429;28;20072;-57
2022/08/31 11:26:46;;;;;;;1.10;0.50;;;27.60;91.10;;;;;;5067947;28;20413;-57
2022/08/31 11:29:43;;;;;;;1.15;0.40;;;29.60;89.30;;;;;;5051846;28;20041;-60
2022/08/31 11:32:44;;;;;;;0.63;0.40;;;31.30;86.80;;;;;;5033530;28;20080;-59
2022/08/31 11:35:11;;;;;;;1.48;0.52;;;32.70;83.80;;;;;;5059295;28;20086;-57
2022/08/31 11:37:53;;;;;;;5.25;0.50;;;33.30;81.80;;;;;;5055728;28;20566;-60
2022/08/31 11:40:43;;;;;;;0.52;0.30;;;34.40;80.70;;;;;;5056571;28;20059;-58
2022/08/31 11:43:14;;;;;;;2.25;0.65;;;34.80;78.30;;;;;;5070672;28;20056;-58
2022/08/31 11:45:41;;;;;;;3.10;0.77;;;35.20;76.60;;;;;;5058706;28;20394;-59
2022/08/31 11:49:02;;;;;;;5.78;1.10;;;35.50;77.30;;;;;;5068581;28;20044;-59
2022/08/31 11:51:35;;;;;;;1.85;0.40;;;35.30;75.70;;;;;;5008664;28;20046;-59
2022/08/31 11:54:04;;;;;;;0.40;0.35;;;34.60;74.30;;;;;;5061132;28;20053;-60
2022/08/31 11:56:38;;;;;;;2.55;0.50;;;34.80;75.70;;;;;;5071313;28;20048;-59
2022/08/31 11:59:27;;;;;;;0.95;0.40;;;33.90;73.70;;;;;;5070881;28;20129;-58
2022/08/31 12:01:56;;;;;;;0.20;0.20;;;34.80;73.60;;;;;;5062077;28;20044;-57
2022/08/31 12:04:40;;;;;;;0.77;0.32;;;35.60;75.10;;;;;;5070810;28;20048;-57
2022/08/31 12:07:12;;;;;;;2.65;0.43;;;36.70;73.00;;;;;;5070680;28;20075;-59
2022/08/31 12:09:50;;;;;;;4.13;0.82;;;36.40;71.90;;;;;;5070280;28;20056;-57
2022/08/31 12:12:20;;;;;;;0.55;0.35;;;36.90;72.90;;;;;;5070855;28;20052;-56
2022/08/31 12:14:58;;;;;;;2.85;0.38;;;37.50;70.80;;;;;;5061707;28;20446;-56
2022/08/31 12:17:45;;;;;;;1.48;0.60;;;36.70;70.20;;;;;;5061813;28;20053;-57
2022/08/31 12:20:21;;;;;;;0.68;0.55;;;36.60;70.40;;;;;;5043076;28;20044;-57
2022/08/31 12:26:18;;;;;;;0.52;0.40;;;36.10;70.60;;;;;;5059840;28;20060;-56
2022/08/31 12:28:59;;;;;;;6.13;0.57;;;35.20;69.80;;;;;;5066727;28;20110;-60
2022/08/31 12:31:25;;;;;;;1.73;0.40;;;33.40;70.90;;;;;;5064454;28;20447;-57
2022/08/31 12:34:16;;;;;;;0.57;0.38;;;31.90;72.90;;;;;;5059872;28;20569;-57
2022/08/31 12:36:43;;;;;;;0.70;0.30;;;30.90;73.80;;;;;;5062004;28;20053;-57
2022/08/31 12:39:22;;;;;;;2.42;0.50;;;30.50;74.00;;;;;;5059886;28;20159;-57
2022/08/31 12:42:01;;;;;;;1.13;0.40;;;29.60;74.40;;;;;;5058069;28;20155;-57
2022/08/31 12:44:41;;;;;;;0.93;0.28;;;29.50;74.10;;;;;;5067204;28;20044;-58
2022/08/31 12:47:33;;;;;;;0.50;0.40;;;29.50;75.70;;;;;;5063588;28;20500;-59
2022/08/31 12:50:29;;;;;;;1.48;0.40;;;29.60;76.20;;;;;;5065561;28;20048;-57
2022/08/31 12:53:32;;;;;;;0.52;0.38;;;29.20;77.20;;;;;;5069501;28;20082;-57
2022/08/31 12:56:08;;;;;;;3.97;1.60;;;29.30;77.00;;;;;;5051695;28;20534;-59
2022/08/31 12:58:56;;;;;;;0.95;0.47;;;29.50;77.70;;;;;;5070121;28;20040;-56
2022/08/31 13:01:24;;;;;;;2.03;0.85;;;29.40;76.10;;;;;;5069858;28;20051;-56
2022/08/31 13:03:55;;;;;;;3.67;0.68;;;29.30;78.30;;;;;;5069458;28;20037;-57
2022/08/31 13:06:23;;;;;;;0.75;0.45;;;29.40;77.10;;;;;;5069194;28;20441;-57
2022/08/31 13:08:50;;;;;;;0.47;0.30;;;28.70;76.20;;;;;;5069259;28;20478;-59
2022/08/31 13:11:21;;;;;;;0.68;0.30;;;28.80;78.10;;;;;;5069532;28;20115;-57
2022/08/31 13:13:46;;;;;;;1.08;0.35;;;28.50;77.20;;;;;;5066465;28;20053;-58
2022/08/31 13:16:13;;;;;;;1.55;0.50;;;28.90;77.60;;;;;;5051270;28;20105;-57
2022/08/31 13:18:39;;;;;;;1.42;0.50;;;29.00;77.90;;;;;;5055709;28;20084;-58
2022/08/31 13:21:05;;;;;;;1.40;0.30;;;29.00;77.00;;;;;;5049715;28;20152;-59
2022/08/31 13:23:37;;;;;;;0.30;0.30;;;29.30;76.00;;;;;;5048870;28;20081;-57
2022/08/31 13:26:18;;;;;;;1.05;0.30;;;29.50;76.90;;;;;;5048483;28;20060;-59